createdAt,value
2017-04-11T00:00:10.492Z,0
2017-04-11T00:01:20.101Z,0
2017-04-11T00:02:29.746Z,0
2017-04-11T00:03:39.325Z,0
2017-04-11T00:04:48.949Z,0
2017-04-11T00:05:59.100Z,0
2017-04-11T00:07:08.750Z,0
2017-04-11T00:08:18.471Z,0
2017-04-11T00:09:28.413Z,0
2017-04-11T00:10:38.441Z,0
2017-04-11T00:11:48.357Z,0
2017-04-11T00:12:58.285Z,0
2017-04-11T00:14:08.387Z,0
2017-04-11T00:15:18.393Z,0
2017-04-11T00:16:27.981Z,0
2017-04-11T00:17:38.181Z,0
2017-04-11T00:18:48.090Z,0
2017-04-11T00:19:57.987Z,0
2017-04-11T00:21:07.914Z,0
2017-04-11T00:22:17.615Z,0
2017-04-11T00:23:27.821Z,0
2017-04-11T00:24:37.822Z,0
2017-04-11T00:25:47.141Z,0
2017-04-11T00:26:56.791Z,0
2017-04-11T00:28:06.717Z,0
2017-04-11T00:29:16.935Z,0
2017-04-11T00:30:26.503Z,0
2017-04-11T00:31:36.215Z,0
2017-04-11T00:32:46.118Z,0
2017-04-11T00:33:56.129Z,0
2017-04-11T00:35:06.450Z,0
2017-04-11T00:36:16.347Z,0
2017-04-11T00:37:26.389Z,0
2017-04-11T00:38:36.302Z,0
2017-04-11T00:39:45.938Z,0
2017-04-11T00:40:55.851Z,0
2017-04-11T00:42:05.117Z,0
2017-04-11T00:43:15.038Z,0
2017-04-11T00:44:24.941Z,0
2017-04-11T00:45:34.525Z,0
2017-04-11T00:46:44.403Z,0
2017-04-11T00:47:54.430Z,0
2017-04-11T00:49:03.692Z,0
2017-04-11T00:50:13.634Z,0
2017-04-11T00:51:23.232Z,0
2017-04-11T00:52:33.165Z,0
2017-04-11T00:53:43.069Z,0
2017-04-11T00:54:53.293Z,0
2017-04-11T00:56:03.314Z,0
2017-04-11T00:57:13.212Z,0
2017-04-11T00:58:22.740Z,0
2017-04-11T00:59:32.648Z,0
2017-04-11T01:00:42.281Z,0
2017-04-11T01:01:51.860Z,0
2017-04-11T01:03:01.526Z,0
2017-04-11T01:04:11.355Z,0
2017-04-11T01:05:20.965Z,0
2017-04-11T01:06:30.935Z,0
2017-04-11T01:07:40.512Z,0
2017-04-11T01:08:50.438Z,0
2017-04-11T01:10:00.736Z,0
2017-04-11T01:11:10.322Z,0
2017-04-11T01:12:20.242Z,0
2017-04-11T01:13:29.857Z,0
2017-04-11T01:14:39.439Z,0
2017-04-11T01:15:49.271Z,0
2017-04-11T01:16:59.384Z,0
2017-04-11T01:18:09.288Z,0
2017-04-11T01:19:19.182Z,0
2017-04-11T01:20:28.810Z,0
2017-04-11T01:21:38.715Z,0
2017-04-11T01:22:48.770Z,0
2017-04-11T01:23:58.703Z,0
2017-04-11T01:25:08.624Z,0
2017-04-11T01:26:18.196Z,0
2017-04-11T01:27:28.476Z,0
2017-04-11T01:28:38.375Z,0
2017-04-11T01:29:47.962Z,0
2017-04-11T01:30:57.549Z,0
2017-04-11T01:32:07.461Z,0
2017-04-11T01:33:17.349Z,0
2017-04-11T01:34:27.293Z,0
2017-04-11T01:35:36.955Z,0
2017-04-11T01:36:46.842Z,0
2017-04-11T01:37:56.491Z,0
2017-04-11T01:39:06.370Z,0
2017-04-11T01:40:16.013Z,0
2017-04-11T01:41:25.911Z,0
2017-04-11T01:42:35.582Z,0
2017-04-11T01:43:45.477Z,0
2017-04-11T01:44:55.365Z,0
2017-04-11T01:46:04.707Z,0
2017-04-11T01:47:14.314Z,0
2017-04-11T01:48:24.208Z,0
2017-04-11T01:49:34.156Z,0
2017-04-11T01:50:44.375Z,0
2017-04-11T01:51:54.458Z,0
2017-04-11T01:53:04.367Z,0
2017-04-11T01:54:14.305Z,0
2017-04-11T01:55:24.204Z,0
2017-04-11T01:56:33.802Z,0
2017-04-11T01:57:43.372Z,0
2017-04-11T01:58:52.965Z,0
2017-04-11T02:00:02.895Z,0
2017-04-11T02:01:12.835Z,0
2017-04-11T02:02:22.900Z,0
2017-04-11T02:03:32.796Z,0
2017-04-11T02:04:42.755Z,0
2017-04-11T02:05:52.681Z,0
2017-04-11T02:07:02.654Z,0
2017-04-11T02:08:12.869Z,0
2017-04-11T02:09:22.560Z,0
2017-04-11T02:10:32.464Z,0
2017-04-11T02:11:42.071Z,0
2017-04-11T02:12:51.649Z,0
2017-04-11T02:14:01.792Z,0
2017-04-11T02:15:11.408Z,0
2017-04-11T02:16:21.083Z,0
2017-04-11T02:17:30.991Z,0
2017-04-11T02:18:40.586Z,0
2017-04-11T02:19:50.466Z,0
2017-04-11T02:21:00.043Z,0
2017-04-11T02:22:10.034Z,0
2017-04-11T02:23:19.972Z,0
2017-04-11T02:24:29.587Z,0
2017-04-11T02:25:39.819Z,0
2017-04-11T02:26:49.393Z,0
2017-04-11T02:27:59.297Z,0
2017-04-11T02:29:09.199Z,0
2017-04-11T02:30:18.904Z,0
2017-04-11T02:31:28.471Z,0
2017-04-11T02:32:38.046Z,0
2017-04-11T02:33:47.634Z,0
2017-04-11T02:34:57.623Z,0
2017-04-11T02:36:07.560Z,0
2017-04-11T02:37:17.736Z,0
2017-04-11T02:38:27.346Z,0
2017-04-11T02:39:37.027Z,0
2017-04-11T02:40:46.633Z,0
2017-04-11T02:41:56.235Z,0
2017-04-11T02:43:06.561Z,0
2017-04-11T02:44:16.510Z,0
2017-04-11T02:45:26.166Z,0
2017-04-11T02:46:36.099Z,0
2017-04-11T02:47:45.694Z,0
2017-04-11T02:48:55.991Z,0
2017-04-11T02:50:05.887Z,0
2017-04-11T02:51:15.533Z,0
2017-04-11T02:52:25.457Z,0
2017-04-11T02:53:34.717Z,0
2017-04-11T02:54:44.594Z,0
2017-04-11T02:55:54.171Z,0
2017-04-11T02:57:03.780Z,0
2017-04-11T02:58:13.805Z,0
2017-04-11T02:59:23.386Z,0
2017-04-11T03:00:33.518Z,0
2017-04-11T03:01:42.780Z,0
2017-04-11T03:02:52.679Z,0
2017-04-11T03:04:02.275Z,0
2017-04-11T03:05:12.424Z,0
2017-04-11T03:06:22.659Z,0
2017-04-11T03:07:32.629Z,0
2017-04-11T03:08:42.519Z,0
2017-04-11T03:09:52.548Z,0
2017-04-11T03:11:02.148Z,0
2017-04-11T03:12:12.465Z,0
2017-04-11T03:13:22.056Z,0
2017-04-11T03:14:31.953Z,0
2017-04-11T03:15:41.207Z,0
2017-04-11T03:16:51.209Z,0
2017-04-11T03:18:01.466Z,0
2017-04-11T03:19:11.399Z,0
2017-04-11T03:20:21.337Z,0
2017-04-11T03:21:31.241Z,0
2017-04-11T03:22:41.141Z,0
2017-04-11T03:23:51.390Z,0
2017-04-11T03:25:01.338Z,0
2017-04-11T03:26:11.229Z,0
2017-04-11T03:27:21.134Z,0
2017-04-11T03:28:31.051Z,0
2017-04-11T03:29:40.981Z,0
2017-04-11T03:30:50.884Z,0
2017-04-11T03:32:00.469Z,0
2017-04-11T03:33:10.404Z,0
2017-04-11T03:34:20.336Z,0
2017-04-11T03:35:30.631Z,0
2017-04-11T03:36:40.228Z,0
2017-04-11T03:37:49.813Z,0
2017-04-11T03:38:59.088Z,0
2017-04-11T03:40:09.082Z,0
2017-04-11T03:41:18.635Z,0
2017-04-11T03:42:28.537Z,0
2017-04-11T03:43:38.221Z,0
2017-04-11T03:44:48.108Z,0
2017-04-11T03:45:58.104Z,0
2017-04-11T03:47:08.338Z,0
2017-04-11T03:48:18.233Z,0
2017-04-11T03:49:28.129Z,0
2017-04-11T03:50:37.719Z,0
2017-04-11T03:51:47.421Z,4
2017-04-11T03:52:56.932Z,4
2017-04-11T03:54:06.550Z,0
2017-04-11T03:55:16.450Z,0
2017-04-11T03:56:26.336Z,4
2017-04-11T03:57:35.908Z,4
2017-04-11T03:58:46.200Z,4
2017-04-11T03:59:55.836Z,4
2017-04-11T04:01:05.815Z,4
2017-04-11T04:02:15.784Z,8
2017-04-11T04:03:25.359Z,12
2017-04-11T04:04:35.241Z,12
2017-04-11T04:05:45.142Z,16
2017-04-11T04:06:55.153Z,16
2017-04-11T04:08:05.084Z,20
2017-04-11T04:09:15.056Z,28
2017-04-11T04:10:25.378Z,36
2017-04-11T04:11:35.343Z,40
2017-04-11T04:12:45.236Z,52
2017-04-11T04:13:54.557Z,60
2017-04-11T04:15:04.457Z,68
2017-04-11T04:16:14.476Z,84
2017-04-11T04:17:24.057Z,96
2017-04-11T04:18:33.391Z,112
2017-04-11T04:19:43.069Z,124
2017-04-11T04:20:53.031Z,144
2017-04-11T04:22:03.254Z,168
2017-04-11T04:23:13.088Z,192
2017-04-11T04:24:22.677Z,216
2017-04-11T04:25:32.570Z,244
2017-04-11T04:26:42.458Z,268
2017-04-11T04:27:52.341Z,300
2017-04-11T04:29:01.977Z,332
2017-04-11T04:30:11.883Z,368
2017-04-11T04:31:21.832Z,400
2017-04-11T04:32:31.737Z,436
2017-04-11T04:33:41.625Z,476
2017-04-11T04:34:51.218Z,516
2017-04-11T04:36:01.117Z,556
2017-04-11T04:37:11.048Z,600
2017-04-11T04:38:20.631Z,640
2017-04-11T04:39:30.526Z,688
2017-04-11T04:40:40.125Z,732
2017-04-11T04:41:50.040Z,776
2017-04-11T04:42:58.976Z,824
2017-04-11T04:44:08.636Z,868
2017-04-11T04:45:18.453Z,916
2017-04-11T04:46:27.415Z,964
2017-04-11T04:47:37.312Z,1008
2017-04-11T04:48:46.931Z,1072
2017-04-11T04:49:56.828Z,1132
2017-04-11T04:51:06.771Z,1176
2017-04-11T04:52:16.667Z,1224
2017-04-11T04:53:26.598Z,1272
2017-04-11T04:54:36.502Z,1316
2017-04-11T04:55:46.409Z,1376
2017-04-11T04:56:56.715Z,1436
2017-04-11T04:58:05.979Z,1488
2017-04-11T04:59:15.876Z,1556
2017-04-11T05:00:25.141Z,1628
2017-04-11T05:01:35.037Z,1696
2017-04-11T05:02:45.263Z,1732
2017-04-11T05:03:55.168Z,1752
2017-04-11T05:05:04.829Z,1796
2017-04-11T05:06:14.729Z,1856
2017-04-11T05:07:24.762Z,1948
2017-04-11T05:08:35.000Z,2068
2017-04-11T05:09:44.935Z,2136
2017-04-11T05:10:53.888Z,2204
2017-04-11T05:12:03.555Z,2312
2017-04-11T05:13:13.474Z,2268
2017-04-11T05:14:23.714Z,2176
2017-04-11T05:15:33.657Z,2196
2017-04-11T05:16:43.791Z,2244
2017-04-11T05:17:53.504Z,2308
2017-04-11T05:19:03.445Z,2384
2017-04-11T05:20:13.615Z,2400
2017-04-11T05:21:23.251Z,2520
2017-04-11T05:22:32.843Z,2704
2017-04-11T05:23:42.739Z,2828
2017-04-11T05:24:52.917Z,2984
2017-04-11T05:26:03.204Z,3136
2017-04-11T05:27:13.102Z,3388
2017-04-11T05:28:22.392Z,3612
2017-04-11T05:29:32.302Z,3796
2017-04-11T05:30:42.212Z,3940
2017-04-11T05:31:52.484Z,4024
2017-04-11T05:33:02.405Z,4048
2017-04-11T05:34:11.997Z,4052
2017-04-11T05:35:21.924Z,4012
2017-04-11T05:36:31.603Z,3944
2017-04-11T05:37:41.496Z,3880
2017-04-11T05:38:51.249Z,3860
2017-04-11T05:40:01.148Z,3860
2017-04-11T05:41:10.744Z,3796
2017-04-11T05:42:20.354Z,3712
2017-04-11T05:43:30.563Z,3848
2017-04-11T05:44:40.278Z,3952
2017-04-11T05:45:50.173Z,3932
2017-04-11T05:46:59.773Z,3916
2017-04-11T05:48:09.346Z,3852
2017-04-11T05:49:19.376Z,3924
2017-04-11T05:50:29.314Z,3932
2017-04-11T05:51:39.347Z,3952
2017-04-11T05:52:48.962Z,4004
2017-04-11T05:53:58.286Z,4060
2017-04-11T05:55:08.656Z,4256
2017-04-11T05:56:17.939Z,4264
2017-04-11T05:57:27.537Z,4088
2017-04-11T05:58:37.184Z,3980
2017-04-11T05:59:46.442Z,3984
2017-04-11T06:00:56.678Z,4000
2017-04-11T06:02:05.940Z,3984
2017-04-11T06:03:15.536Z,3988
2017-04-11T06:04:25.118Z,3992
2017-04-11T06:05:35.083Z,4000
2017-04-11T06:06:44.756Z,3660
2017-04-11T06:07:54.362Z,3724
2017-04-11T06:09:04.261Z,3812
2017-04-11T06:10:14.167Z,3904
2017-04-11T06:11:24.080Z,3844
2017-04-11T06:12:33.631Z,4012
2017-04-11T06:13:43.258Z,4072
2017-04-11T06:14:52.853Z,4092
2017-04-11T06:16:02.790Z,4080
2017-04-11T06:17:12.134Z,4124
2017-04-11T06:18:22.006Z,4152
2017-04-11T06:19:31.307Z,4236
2017-04-11T06:20:41.279Z,4336
2017-04-11T06:21:50.894Z,4620
2017-04-11T06:23:00.842Z,4376
2017-04-11T06:24:11.058Z,4696
2017-04-11T06:25:20.962Z,4252
2017-04-11T06:26:30.633Z,4232
2017-04-11T06:27:40.587Z,4336
2017-04-11T06:28:50.512Z,4344
2017-04-11T06:30:00.392Z,3700
2017-04-11T06:31:10.001Z,4540
2017-04-11T06:32:19.982Z,4612
2017-04-11T06:33:29.924Z,4052
2017-04-11T06:34:39.180Z,5520
2017-04-11T06:35:49.104Z,7032
2017-04-11T06:36:58.743Z,6056
2017-04-11T06:38:08.710Z,5484
2017-04-11T06:39:18.599Z,7188
2017-04-11T06:40:28.524Z,8496
2017-04-11T06:41:38.493Z,8364
2017-04-11T06:42:48.071Z,9312
2017-04-11T06:43:58.055Z,11100
2017-04-11T06:45:08.047Z,11892
2017-04-11T06:46:17.399Z,11640
2017-04-11T06:47:27.617Z,10924
2017-04-11T06:48:37.231Z,11360
2017-04-11T06:49:47.371Z,9816
2017-04-11T06:50:57.390Z,9180
2017-04-11T06:52:07.434Z,11096
2017-04-11T06:53:17.680Z,10476
2017-04-11T06:54:27.320Z,10928
2017-04-11T06:55:37.278Z,11516
2017-04-11T06:56:47.006Z,10552
2017-04-11T06:57:56.903Z,9976
2017-04-11T06:59:06.793Z,9744
2017-04-11T07:00:16.745Z,10240
2017-04-11T07:01:26.748Z,11216
2017-04-11T07:02:36.667Z,11892
2017-04-11T07:03:46.241Z,12120
2017-04-11T07:04:56.126Z,12292
2017-04-11T07:06:05.727Z,12120
2017-04-11T07:07:14.996Z,13420
2017-04-11T07:08:24.626Z,12872
2017-04-11T07:09:33.947Z,12516
2017-04-11T07:10:43.878Z,13020
2017-04-11T07:11:53.468Z,13084
2017-04-11T07:13:03.454Z,13392
2017-04-11T07:14:13.425Z,14404
2017-04-11T07:15:23.325Z,15872
2017-04-11T07:16:33.566Z,15872
2017-04-11T07:17:43.175Z,15408
2017-04-11T07:18:53.088Z,14820
2017-04-11T07:20:02.678Z,13772
2017-04-11T07:21:12.583Z,12148
2017-04-11T07:22:22.225Z,11332
2017-04-11T07:23:31.842Z,9712
2017-04-11T07:24:41.786Z,9964
2017-04-11T07:25:51.415Z,9756
2017-04-11T07:27:01.128Z,8096
2017-04-11T07:28:11.413Z,7480
2017-04-11T07:29:21.310Z,9636
2017-04-11T07:30:31.225Z,10448
2017-04-11T07:31:41.150Z,8872
2017-04-11T07:32:50.780Z,7076
2017-04-11T07:34:01.019Z,6172
2017-04-11T07:35:10.919Z,7948
2017-04-11T07:36:20.876Z,7744
2017-04-11T07:37:30.810Z,7740
2017-04-11T07:38:40.409Z,9156
2017-04-11T07:39:50.769Z,8780
2017-04-11T07:41:00.358Z,8740
2017-04-11T07:42:10.288Z,8212
2017-04-11T07:43:20.203Z,7904
2017-04-11T07:44:30.113Z,7824
2017-04-11T07:45:40.023Z,7992
2017-04-11T07:46:50.063Z,10656
2017-04-11T07:47:59.669Z,15024
2017-04-11T07:49:09.574Z,11208
2017-04-11T07:50:19.284Z,11636
2017-04-11T07:51:29.168Z,13704
2017-04-11T07:52:38.251Z,11616
2017-04-11T07:53:47.900Z,13860
2017-04-11T07:54:57.882Z,17888
2017-04-11T07:56:07.803Z,19680
2017-04-11T07:57:18.680Z,12224
2017-04-11T07:58:28.945Z,10024
2017-04-11T07:59:38.882Z,10956
2017-04-11T08:00:48.577Z,8248
2017-04-11T08:01:58.526Z,9956
2017-04-11T08:03:08.594Z,11136
2017-04-11T08:04:18.174Z,10924
2017-04-11T08:05:27.906Z,12324
2017-04-11T08:06:37.526Z,17984
2017-04-11T08:07:48.091Z,20352
2017-04-11T08:08:58.908Z,17120
2017-04-11T08:10:09.518Z,14332
2017-04-11T08:11:20.648Z,11456
2017-04-11T08:12:30.559Z,16128
2017-04-11T08:13:40.798Z,24800
2017-04-11T08:14:51.340Z,16160
2017-04-11T08:16:01.890Z,14752
2017-04-11T08:17:12.442Z,12396
2017-04-11T08:18:22.414Z,10760
2017-04-11T08:19:32.065Z,11720
2017-04-11T08:20:42.293Z,14052
2017-04-11T08:21:52.256Z,17888
2017-04-11T08:23:02.217Z,18720
2017-04-11T08:24:12.380Z,13392
2017-04-11T08:25:22.655Z,12920
2017-04-11T08:26:33.461Z,18880
2017-04-11T08:27:43.947Z,22400
2017-04-11T08:28:54.208Z,16192
2017-04-11T08:30:05.039Z,14904
2017-04-11T08:31:16.269Z,17504
2017-04-11T08:32:27.384Z,19968
2017-04-11T08:33:37.571Z,23968
2017-04-11T08:34:47.750Z,30336
2017-04-11T08:35:57.926Z,31040
2017-04-11T08:37:08.508Z,21856
2017-04-11T08:38:19.320Z,33472
2017-04-11T08:39:30.150Z,20128
2017-04-11T08:40:40.870Z,11728
2017-04-11T08:41:50.722Z,10224
2017-04-11T08:43:01.273Z,82304
2017-04-11T08:44:12.117Z,90912
2017-04-11T08:45:22.354Z,37824
2017-04-11T08:46:33.816Z,19328
2017-04-11T08:47:43.979Z,86208
2017-04-11T08:48:54.590Z,50304
2017-04-11T08:50:05.484Z,103968
2017-04-11T08:51:16.029Z,21632
2017-04-11T08:52:26.379Z,17568
2017-04-11T08:53:36.640Z,12224
2017-04-11T08:54:47.134Z,8840
2017-04-11T08:55:57.748Z,8012
2017-04-11T08:57:07.961Z,8828
2017-04-11T08:58:18.497Z,14136
2017-04-11T08:59:28.666Z,77984
2017-04-11T09:00:39.334Z,65344
2017-04-11T09:01:49.816Z,14792
2017-04-11T09:03:00.496Z,16320
2017-04-11T09:04:11.054Z,20128
2017-04-11T09:05:21.266Z,17984
2017-04-11T09:06:32.004Z,15904
2017-04-11T09:07:42.878Z,18496
2017-04-11T09:08:53.062Z,20032
2017-04-11T09:10:03.584Z,19360
2017-04-11T09:11:14.120Z,17056
2017-04-11T09:12:23.984Z,16704
2017-04-11T09:13:34.123Z,21280
2017-04-11T09:14:44.691Z,26880
2017-04-11T09:15:56.219Z,17088
2017-04-11T09:17:06.533Z,18368
2017-04-11T09:18:17.869Z,16800
2017-04-11T09:19:29.699Z,16992
2017-04-11T09:20:39.895Z,17056
2017-04-11T09:21:49.212Z,17504
2017-04-11T09:22:59.118Z,23872
2017-04-11T09:24:09.675Z,91392
2017-04-11T09:25:20.128Z,23072
2017-04-11T09:26:30.318Z,30240
2017-04-11T09:27:40.866Z,87872
2017-04-11T09:28:50.768Z,109216
2017-04-11T09:30:00.975Z,25184
2017-04-11T09:31:11.463Z,35328
2017-04-11T09:32:21.331Z,56064
2017-04-11T09:33:32.026Z,18016
2017-04-11T09:34:42.547Z,13236
2017-04-11T09:35:52.736Z,17888
2017-04-11T09:37:03.567Z,76512
2017-04-11T09:38:14.198Z,22336
2017-04-11T09:39:24.151Z,25920
2017-04-11T09:40:34.648Z,82816
2017-04-11T09:41:45.142Z,96576
2017-04-11T09:42:55.937Z,116672
2017-04-11T09:44:06.636Z,108896
2017-04-11T09:45:17.145Z,90112
2017-04-11T09:46:27.356Z,116544
2017-04-11T09:47:37.744Z,85632
2017-04-11T09:48:48.690Z,84608
2017-04-11T09:49:59.190Z,103168
2017-04-11T09:51:09.548Z,60096
2017-04-11T09:52:20.066Z,62016
2017-04-11T09:53:30.364Z,30560
2017-04-11T09:54:40.934Z,26752
2017-04-11T09:55:51.212Z,14464
2017-04-11T09:57:01.742Z,11812
2017-04-11T09:58:11.931Z,10788
2017-04-11T09:59:23.122Z,13024
2017-04-11T10:00:33.677Z,21280
2017-04-11T10:01:44.290Z,27680
2017-04-11T10:02:55.856Z,29216
2017-04-11T10:04:05.716Z,99680
2017-04-11T10:05:16.312Z,50016
2017-04-11T10:06:26.814Z,73504
2017-04-11T10:07:37.357Z,114816
2017-04-11T10:08:47.228Z,40384
2017-04-11T10:09:57.115Z,44096
2017-04-11T10:11:06.974Z,130176
2017-04-11T10:12:17.773Z,102432
2017-04-11T10:13:28.347Z,30720
2017-04-11T10:14:38.609Z,114336
2017-04-11T10:15:49.129Z,24160
2017-04-11T10:16:59.372Z,26528
2017-04-11T10:18:10.318Z,28480
2017-04-11T10:19:20.451Z,26496
2017-04-11T10:20:30.980Z,24992
2017-04-11T10:21:41.227Z,22016
2017-04-11T10:22:51.835Z,25216
2017-04-11T10:24:02.346Z,25920
2017-04-11T10:25:12.540Z,27520
2017-04-11T10:26:22.453Z,35584
2017-04-11T10:27:32.805Z,26752
2017-04-11T10:28:43.330Z,17568
2017-04-11T10:29:55.064Z,18752
2017-04-11T10:31:05.607Z,19200
2017-04-11T10:32:16.196Z,36416
2017-04-11T10:33:26.738Z,53888
2017-04-11T10:34:37.322Z,14324
2017-04-11T10:35:47.847Z,8060
2017-04-11T10:36:58.435Z,6332
2017-04-11T10:38:08.333Z,8712
2017-04-11T10:39:18.832Z,13984
2017-04-11T10:40:29.315Z,15580
2017-04-11T10:41:39.938Z,12092
2017-04-11T10:42:50.538Z,9944
2017-04-11T10:44:00.574Z,12008
2017-04-11T10:45:10.494Z,14636
2017-04-11T10:46:20.165Z,18432
2017-04-11T10:47:30.423Z,22688
2017-04-11T10:48:41.255Z,32288
2017-04-11T10:49:51.847Z,17888
2017-04-11T10:51:02.404Z,14628
2017-04-11T10:52:12.587Z,11836
2017-04-11T10:53:22.836Z,8944
2017-04-11T10:54:32.742Z,6184
2017-04-11T10:55:42.670Z,4624
2017-04-11T10:56:52.577Z,3644
2017-04-11T10:58:02.477Z,3168
2017-04-11T10:59:12.043Z,3032
2017-04-11T11:00:21.996Z,3128
2017-04-11T11:01:31.610Z,3388
2017-04-11T11:02:41.526Z,3728
2017-04-11T11:03:50.512Z,4156
2017-04-11T11:05:00.405Z,4940
2017-04-11T11:06:10.431Z,5944
2017-04-11T11:07:20.061Z,7316
2017-04-11T11:08:29.651Z,8556
2017-04-11T11:09:39.620Z,9288
2017-04-11T11:10:49.944Z,10324
2017-04-11T11:11:59.856Z,11688
2017-04-11T11:13:09.487Z,12668
2017-04-11T11:14:19.089Z,12892
2017-04-11T11:15:29.019Z,13088
2017-04-11T11:16:38.537Z,13028
2017-04-11T11:17:48.605Z,13072
2017-04-11T11:18:58.575Z,12832
2017-04-11T11:20:08.223Z,12120
2017-04-11T11:21:17.851Z,10992
2017-04-11T11:22:28.129Z,10520
2017-04-11T11:23:37.723Z,9776
2017-04-11T11:24:47.668Z,9576
2017-04-11T11:25:57.645Z,10572
2017-04-11T11:27:07.557Z,9916
2017-04-11T11:28:17.780Z,11044
2017-04-11T11:29:27.725Z,14848
2017-04-11T11:30:37.622Z,15672
2017-04-11T11:31:47.547Z,14176
2017-04-11T11:32:57.488Z,17824
2017-04-11T11:34:07.703Z,14908
2017-04-11T11:35:17.288Z,10488
2017-04-11T11:36:27.211Z,7708
2017-04-11T11:37:37.130Z,5184
2017-04-11T11:38:47.235Z,4036
2017-04-11T11:39:57.157Z,4276
2017-04-11T11:41:06.780Z,5028
2017-04-11T11:42:16.456Z,5820
2017-04-11T11:43:25.730Z,5684
2017-04-11T11:44:35.366Z,4708
2017-04-11T11:45:45.003Z,4420
2017-04-11T11:46:54.960Z,4848
2017-04-11T11:48:04.261Z,6700
2017-04-11T11:49:13.843Z,9064
2017-04-11T11:50:23.811Z,10756
2017-04-11T11:51:34.010Z,13284
2017-04-11T11:52:43.363Z,15188
2017-04-11T11:53:53.269Z,15116
2017-04-11T11:55:03.246Z,14720
2017-04-11T11:56:12.885Z,15372
2017-04-11T11:57:23.094Z,19616
2017-04-11T11:58:32.387Z,23552
2017-04-11T11:59:41.974Z,20480
2017-04-11T12:00:51.644Z,21472
2017-04-11T12:02:01.236Z,25536
2017-04-11T12:03:11.511Z,23936
2017-04-11T12:04:21.200Z,18496
2017-04-11T12:05:30.484Z,15256
2017-04-11T12:06:40.403Z,15092
2017-04-11T12:07:50.124Z,18720
2017-04-11T12:09:00.353Z,24288
2017-04-11T12:10:10.295Z,88160
2017-04-11T12:11:20.209Z,35200
2017-04-11T12:12:29.519Z,20480
2017-04-11T12:13:39.456Z,16608
2017-04-11T12:14:49.683Z,16096
2017-04-11T12:15:59.270Z,15200
2017-04-11T12:17:09.313Z,16512
2017-04-11T12:18:18.905Z,15244
2017-04-11T12:19:28.225Z,16992
2017-04-11T12:20:38.144Z,21856
2017-04-11T12:21:47.765Z,30784
2017-04-11T12:22:58.360Z,88096
2017-04-11T12:24:08.942Z,68192
2017-04-11T12:25:19.193Z,111200
2017-04-11T12:26:29.988Z,47776
2017-04-11T12:27:40.202Z,31072
2017-04-11T12:28:50.727Z,27456
2017-04-11T12:30:00.906Z,23232
2017-04-11T12:31:11.040Z,23520
2017-04-11T12:32:21.921Z,22016
2017-04-11T12:33:32.161Z,16992
2017-04-11T12:34:42.696Z,12912
2017-04-11T12:35:54.184Z,10752
2017-04-11T12:37:04.365Z,8992
2017-04-11T12:38:15.244Z,7416
2017-04-11T12:39:25.529Z,6504
2017-04-11T12:40:35.135Z,5524
2017-04-11T12:41:45.097Z,5100
2017-04-11T12:42:54.709Z,4660
2017-04-11T12:44:04.643Z,4376
2017-04-11T12:45:14.238Z,4436
2017-04-11T12:46:23.837Z,4700
2017-04-11T12:47:33.752Z,5108
2017-04-11T12:48:43.721Z,5736
2017-04-11T12:49:53.650Z,6200
2017-04-11T12:51:03.291Z,6780
2017-04-11T12:52:13.206Z,7392
2017-04-11T12:53:23.248Z,9920
2017-04-11T12:54:33.174Z,11964
2017-04-11T12:55:43.422Z,14848
2017-04-11T12:56:53.342Z,17568
2017-04-11T12:58:03.326Z,17344
2017-04-11T12:59:13.275Z,15620
2017-04-11T13:00:22.870Z,15896
2017-04-11T13:01:33.149Z,14808
2017-04-11T13:02:43.101Z,11628
2017-04-11T13:03:52.718Z,9720
2017-04-11T13:05:02.731Z,9268
2017-04-11T13:06:12.674Z,7444
2017-04-11T13:07:22.892Z,6772
2017-04-11T13:08:33.029Z,8080
2017-04-11T13:09:42.655Z,9896
2017-04-11T13:10:52.602Z,13244
2017-04-11T13:12:02.526Z,18848
2017-04-11T13:13:12.521Z,22912
2017-04-11T13:14:22.443Z,22432
2017-04-11T13:15:32.391Z,24288
2017-04-11T13:16:41.984Z,18656
2017-04-11T13:17:52.011Z,18016
2017-04-11T13:19:02.438Z,19936
2017-04-11T13:20:12.335Z,20032
2017-04-11T13:21:21.615Z,21920
2017-04-11T13:22:31.527Z,29792
2017-04-11T13:23:41.127Z,113088
2017-04-11T13:24:51.055Z,62848
2017-04-11T13:26:00.670Z,21888
2017-04-11T13:27:10.257Z,18816
2017-04-11T13:28:20.215Z,17024
2017-04-11T13:29:29.806Z,16448
2017-04-11T13:30:39.696Z,15172
2017-04-11T13:31:49.292Z,14608
2017-04-11T13:32:59.263Z,14752
2017-04-11T13:34:08.554Z,14688
2017-04-11T13:35:18.495Z,14868
2017-04-11T13:36:28.423Z,14584
2017-04-11T13:37:38.410Z,15168
2017-04-11T13:38:47.806Z,14496
2017-04-11T13:39:57.752Z,13908
2017-04-11T13:41:07.698Z,12292
2017-04-11T13:42:17.601Z,10956
2017-04-11T13:43:27.202Z,9132
2017-04-11T13:44:37.117Z,7540
2017-04-11T13:45:47.017Z,6344
2017-04-11T13:46:56.703Z,6080
2017-04-11T13:48:06.910Z,6436
2017-04-11T13:49:16.848Z,6612
2017-04-11T13:50:26.125Z,6996
2017-04-11T13:51:36.075Z,6272
2017-04-11T13:52:45.676Z,6484
2017-04-11T13:53:55.830Z,6820
2017-04-11T13:55:05.743Z,7424
2017-04-11T13:56:15.395Z,8124
2017-04-11T13:57:25.318Z,6760
2017-04-11T13:58:34.646Z,6388
2017-04-11T13:59:44.903Z,5632
2017-04-11T14:00:54.854Z,4560
2017-04-11T14:02:04.789Z,4364
2017-04-11T14:03:14.688Z,4652
2017-04-11T14:04:24.698Z,5104
2017-04-11T14:05:35.048Z,5068
2017-04-11T14:06:44.664Z,5676
2017-04-11T14:07:54.281Z,9596
2017-04-11T14:09:03.553Z,23008
2017-04-11T14:10:13.461Z,19968
2017-04-11T14:11:23.739Z,17696
2017-04-11T14:12:33.067Z,17184
2017-04-11T14:13:42.766Z,16096
2017-04-11T14:14:52.714Z,13444
2017-04-11T14:16:02.334Z,10288
2017-04-11T14:17:12.554Z,8868
2017-04-11T14:18:22.490Z,9244
2017-04-11T14:19:32.126Z,9072
2017-04-11T14:20:42.044Z,8752
2017-04-11T14:21:52.060Z,8832
2017-04-11T14:23:02.261Z,8924
2017-04-11T14:24:11.546Z,8640
2017-04-11T14:25:21.213Z,8244
2017-04-11T14:26:31.231Z,7632
2017-04-11T14:27:41.228Z,6976
2017-04-11T14:28:51.565Z,6416
2017-04-11T14:30:01.165Z,6480
2017-04-11T14:31:10.760Z,7012
2017-04-11T14:32:20.681Z,6516
2017-04-11T14:33:30.831Z,6832
2017-04-11T14:34:41.082Z,6784
2017-04-11T14:35:50.989Z,6144
2017-04-11T14:37:00.590Z,6408
2017-04-11T14:38:10.526Z,6692
2017-04-11T14:39:20.128Z,6320
2017-04-11T14:40:29.963Z,6572
2017-04-11T14:41:39.908Z,6648
2017-04-11T14:42:49.488Z,5944
2017-04-11T14:43:59.423Z,5972
2017-04-11T14:45:08.373Z,6316
2017-04-11T14:46:18.004Z,6800
2017-04-11T14:47:27.915Z,6444
2017-04-11T14:48:37.841Z,4896
2017-04-11T14:49:47.476Z,3748
2017-04-11T14:50:57.189Z,3028
2017-04-11T14:52:07.395Z,3164
2017-04-11T14:53:17.352Z,4048
2017-04-11T14:54:26.974Z,3984
2017-04-11T14:55:36.889Z,4652
2017-04-11T14:56:46.834Z,5828
2017-04-11T14:57:57.158Z,7296
2017-04-11T14:59:06.919Z,10016
2017-04-11T15:00:16.190Z,11736
2017-04-11T15:01:25.778Z,12228
2017-04-11T15:02:35.714Z,10292
2017-04-11T15:03:45.930Z,8956
2017-04-11T15:04:55.872Z,8008
2017-04-11T15:06:05.527Z,7436
2017-04-11T15:07:15.173Z,7788
2017-04-11T15:08:25.167Z,7984
2017-04-11T15:09:35.040Z,6572
2017-04-11T15:10:44.955Z,4152
2017-04-11T15:11:54.986Z,3992
2017-04-11T15:13:04.754Z,4908
2017-04-11T15:14:14.732Z,4096
2017-04-11T15:15:24.991Z,3012
2017-04-11T15:16:35.044Z,3588
2017-04-11T15:17:44.960Z,4720
2017-04-11T15:18:54.919Z,5024
2017-04-11T15:20:05.017Z,3868
2017-04-11T15:21:15.247Z,2600
2017-04-11T15:22:24.854Z,2092
2017-04-11T15:23:34.487Z,2380
2017-04-11T15:24:44.128Z,2580
2017-04-11T15:25:54.044Z,2700
2017-04-11T15:27:04.255Z,2732
2017-04-11T15:28:14.185Z,2912
2017-04-11T15:29:24.184Z,3112
2017-04-11T15:30:34.289Z,3724
2017-04-11T15:31:43.665Z,4260
2017-04-11T15:32:53.955Z,4628
2017-04-11T15:34:03.593Z,4656
2017-04-11T15:35:12.926Z,4080
2017-04-11T15:36:22.595Z,3660
2017-04-11T15:37:32.512Z,3740
2017-04-11T15:38:42.407Z,4484
2017-04-11T15:39:51.731Z,5272
2017-04-11T15:41:01.345Z,5268
2017-04-11T15:42:10.613Z,4908
2017-04-11T15:43:20.597Z,5036
2017-04-11T15:44:30.806Z,5148
2017-04-11T15:45:40.726Z,4908